Time;durP1;ratioP1;P1;durP2;ratioP2;P2;SDS_P1;SDS_P2;PMS_P1;PMS_P2;Temp;Humidity;BMP_temperature;BMP_pressure;BME280_temperature;BME280_humidity;BME280_pressure;Samples;Min_cycle;Max_cycle;Signal;HPM_P1;HPM_P2
2022/06/12 00:01:14;;;;;;;0.40;0.10;;;;;;;18.86;61.56;100891.77;103404;1284;139100;-70
2022/06/12 00:03:41;;;;;;;0.40;0.10;;;;;;;18.78;61.42;100890.05;103514;1284;94385;-72
2022/06/12 00:06:09;;;;;;;0.40;0.10;;;;;;;18.64;61.87;100888.29;103372;1284;138046;-72
2022/06/12 00:08:38;;;;;;;0.40;0.10;;;;;;;18.64;61.88;100884.66;103231;1284;94347;-71
2022/06/12 00:11:14;;;;;;;0.40;0.10;;;;;;;18.67;61.86;100882.55;103526;1284;140401;-72
2022/06/12 00:13:46;;;;;;;0.40;0.10;;;;;;;18.67;61.81;100886.49;103788;1284;105662;-71
2022/06/12 00:16:15;;;;;;;0.40;0.10;;;;;;;18.67;61.85;100886.48;103529;1284;99869;-72
2022/06/12 00:18:43;;;;;;;0.40;0.10;;;;;;;18.66;61.92;100888.20;103462;1284;138285;-72
2022/06/12 00:21:11;;;;;;;0.40;0.10;;;;;;;18.67;61.77;100888.14;103587;1284;94706;-71
2022/06/12 00:23:49;;;;;;;0.40;0.10;;;;;;;18.72;61.71;100885.88;103531;1284;138491;-72
2022/06/12 00:26:20;;;;;;;0.40;0.10;;;;;;;18.76;61.50;100890.89;103488;1284;108348;-72
2022/06/12 00:28:47;;;;;;;0.40;0.10;;;;;;;18.77;61.54;100895.88;103621;1284;99633;-72
2022/06/12 00:31:14;;;;;;;0.40;0.10;;;;;;;18.76;61.51;100894.70;103433;1284;138618;-72
2022/06/12 00:33:40;;;;;;;0.40;0.10;;;;;;;18.71;61.81;100890.05;103306;1284;94408;-71
2022/06/12 00:36:07;;;;;;;0.40;0.10;;;;;;;18.62;61.93;100888.59;103452;1283;137846;-71
2022/06/12 00:38:33;;;;;;;0.40;0.10;;;;;;;18.56;62.17;100887.81;103595;1284;94249;-72
2022/06/12 00:41:00;;;;;;;0.40;0.10;;;;;;;18.57;62.05;100886.52;103496;1284;109648;-73
2022/06/12 00:43:31;;;;;;;0.40;0.10;;;;;;;18.58;62.17;100888.76;103430;1284;139004;-71
2022/06/12 00:46:01;;;;;;;0.40;0.10;;;;;;;18.60;61.95;100887.58;103586;1284;94374;-71
2022/06/12 00:48:34;;;;;;;0.40;0.10;;;;;;;18.54;61.88;100889.15;103689;1284;137787;-72
2022/06/12 00:51:11;;;;;;;0.40;0.10;;;;;;;18.42;62.31;100887.45;103545;1284;99396;-73
2022/06/12 00:53:48;;;;;;;0.40;0.10;;;;;;;18.39;62.48;100883.45;103393;1284;139052;-72
2022/06/12 00:56:35;;;;;;;0.40;0.10;;;;;;;18.40;62.44;100882.33;103399;1284;94253;-70
2022/06/12 00:59:08;;;;;;;0.40;0.10;;;;;;;18.49;62.42;100883.48;103530;1284;94686;-72
2022/06/12 01:01:39;;;;;;;0.40;0.10;;;;;;;18.50;62.16;100883.11;103510;1284;108347;-71
2022/06/12 01:06:56;;;;;;;0.40;0.10;;;;;;;18.47;62.14;100879.84;103187;1287;138827;-72
2022/06/12 01:09:30;;;;;;;0.40;0.10;;;;;;;18.48;62.08;100880.27;103522;1284;95700;-71
2022/06/12 01:12:00;;;;;;;0.40;0.10;;;;;;;18.45;62.14;100875.23;103510;1284;136983;-71
2022/06/12 01:14:32;;;;;;;0.40;0.10;;;;;;;18.42;62.16;100876.68;103561;1284;108602;-72
2022/06/12 01:17:02;;;;;;;0.40;0.20;;;;;;;18.35;62.41;100873.95;103623;1284;99469;-71
2022/06/12 01:19:43;;;;;;;0.40;0.10;;;;;;;18.31;62.45;100873.80;103406;1284;108684;-72
2022/06/12 01:22:42;;;;;;;0.40;0.10;;;;;;;18.17;62.72;100870.71;103648;1284;94359;-71
2022/06/12 01:25:40;;;;;;;0.40;0.10;;;;;;;18.10;62.96;100867.13;103492;1284;138057;-72
2022/06/12 01:28:34;;;;;;;0.40;0.10;;;;;;;18.04;63.14;100863.99;103573;1284;108216;-71
2022/06/12 01:31:38;;;;;;;0.40;0.10;;;;;;;17.99;63.30;100864.45;103468;1284;138404;-72
2022/06/12 01:34:32;;;;;;;0.40;0.10;;;;;;;17.96;63.55;100862.61;103306;1284;108906;-71
2022/06/12 01:37:14;;;;;;;0.40;0.10;;;;;;;17.96;63.28;100864.77;103502;1284;138847;-71
2022/06/12 01:40:01;;;;;;;0.40;0.10;;;;;;;17.95;63.23;100868.60;103605;1284;94331;-72
2022/06/12 01:42:46;;;;;;;0.40;0.10;;;;;;;17.96;63.36;100867.80;103431;1284;138726;-72
2022/06/12 01:45:53;;;;;;;0.40;0.10;;;;;;;17.97;63.21;100866.15;103520;1284;99832;-72
2022/06/12 01:48:34;;;;;;;0.40;0.10;;;;;;;17.97;63.36;100869.92;103448;1284;138558;-72
2022/06/12 01:51:28;;;;;;;0.40;0.10;;;;;;;17.97;63.28;100865.28;103539;1284;94350;-71
2022/06/12 01:54:14;;;;;;;0.40;0.10;;;;;;;17.92;63.41;100866.20;103526;1284;137815;-72
2022/06/12 01:56:44;;;;;;;0.40;0.20;;;;;;;17.91;63.51;100864.10;103531;1284;107225;-72
2022/06/12 01:59:17;;;;;;;0.40;0.10;;;;;;;17.88;63.63;100860.64;103360;1284;138868;-71
2022/06/12 02:01:52;;;;;;;0.40;0.10;;;;;;;17.89;63.52;100863.63;103576;1284;108942;-72
2022/06/12 02:04:55;;;;;;;0.40;0.10;;;;;;;17.97;63.20;100861.28;103580;1284;94370;-73
2022/06/12 02:07:42;;;;;;;0.40;0.10;;;;;;;18.02;62.90;100866.05;103535;1284;137733;-73
2022/06/12 02:10:18;;;;;;;0.40;0.10;;;;;;;18.05;62.85;100865.23;103603;1284;109074;-71
2022/06/12 02:13:11;;;;;;;0.40;0.10;;;;;;;18.02;62.91;100868.05;103576;1284;138815;-71
2022/06/12 02:16:08;;;;;;;0.40;0.10;;;;;;;18.02;62.85;100864.30;103083;1283;108927;-71
2022/06/12 02:18:41;;;;;;;0.40;0.10;;;;;;;18.06;62.68;100866.77;103443;1284;137966;-72
2022/06/12 02:21:15;;;;;;;0.40;0.10;;;;;;;18.02;62.65;100863.59;103767;1284;94336;-71
2022/06/12 02:24:02;;;;;;;0.40;0.10;;;;;;;17.99;62.76;100863.20;103562;1284;138679;-71
2022/06/12 02:27:20;;;;;;;0.40;0.20;;;;;;;17.93;62.89;100864.04;103480;1284;99634;-73
2022/06/12 02:29:54;;;;;;;0.40;0.10;;;;;;;17.85;63.19;100862.56;103491;1283;138544;-70
2022/06/12 02:32:34;;;;;;;0.40;0.10;;;;;;;17.82;63.47;100859.66;103696;1284;94525;-71
2022/06/12 02:35:06;;;;;;;0.40;0.20;;;;;;;17.83;63.56;100859.96;103706;1284;94468;-70
2022/06/12 02:37:44;;;;;;;0.40;0.10;;;;;;;17.82;63.42;100853.54;103610;1284;107178;-71
2022/06/12 02:40:18;;;;;;;0.40;0.10;;;;;;;17.77;63.55;100858.13;103607;1284;99882;-71
2022/06/12 02:42:47;;;;;;;0.40;0.10;;;;;;;17.74;63.59;100860.98;103607;1283;138216;-72
2022/06/12 02:45:33;;;;;;;0.40;0.20;;;;;;;17.73;63.76;100863.70;103639;1284;94347;-70
2022/06/12 02:48:01;;;;;;;0.40;0.20;;;;;;;17.68;63.98;100860.35;103518;1284;139177;-71
2022/06/12 02:50:34;;;;;;;0.40;0.20;;;;;;;17.68;64.02;100856.94;104013;1284;108546;-73
2022/06/12 02:53:09;;;;;;;0.40;0.20;;;;;;;17.74;63.92;100860.07;103637;1284;99507;-71
2022/06/12 02:55:47;;;;;;;0.40;0.20;;;;;;;17.74;64.08;100858.46;103553;1284;109337;-72
2022/06/12 02:59:05;;;;;;;0.40;0.20;;;;;;;17.73;64.11;100857.41;103675;1284;94464;-71
2022/06/12 03:01:42;;;;;;;0.40;0.20;;;;;;;17.76;64.27;100859.44;103153;1285;94855;-72
2022/06/12 03:04:27;;;;;;;0.40;0.20;;;;;;;17.80;64.28;100859.05;103963;1284;108831;-72
2022/06/12 03:06:53;;;;;;;0.40;0.20;;;;;;;17.83;64.04;100855.50;103483;1284;138743;-71
2022/06/12 03:09:21;;;;;;;0.40;0.20;;;;;;;17.66;64.28;100852.74;103662;1284;94769;-71
2022/06/12 03:11:49;;;;;;;0.40;0.20;;;;;;;17.63;64.57;100856.13;103502;1283;138611;-71
2022/06/12 03:14:23;;;;;;;0.40;0.20;;;;;;;17.80;64.15;100867.84;103467;1284;94757;-72
2022/06/12 03:16:50;;;;;;;0.40;0.20;;;;;;;17.89;63.90;100862.38;103611;1284;109987;-71
2022/06/12 03:19:28;;;;;;;0.40;0.20;;;;;;;17.97;63.89;100865.27;103558;1284;141348;-71
2022/06/12 03:22:07;;;;;;;0.40;0.20;;;;;;;18.07;63.84;100863.69;103708;1284;107842;-71
2022/06/12 03:24:52;;;;;;;0.40;0.20;;;;;;;18.12;63.84;100860.21;103534;1284;138632;-71
2022/06/12 03:27:37;;;;;;;0.40;0.20;;;;;;;18.20;64.05;100855.48;103701;1284;94364;-72
2022/06/12 03:30:17;;;;;;;0.40;0.10;;;;;;;18.35;63.02;100856.69;103632;1284;139340;-69
2022/06/12 03:32:58;;;;;;;0.40;0.10;;;;;;;18.49;62.58;100853.13;103633;1284;99582;-71
2022/06/12 03:35:25;;;;;;;0.40;0.10;;;;;;;18.59;62.42;100856.70;103507;1284;138801;-71
2022/06/12 03:38:30;;;;;;;0.40;0.20;;;;;;;18.59;62.29;100856.90;103457;1284;94359;-72
2022/06/12 03:41:23;;;;;;;0.40;0.20;;;;;;;18.63;62.70;100858.12;103256;1284;94784;-71
2022/06/12 03:44:22;;;;;;;0.40;0.20;;;;;;;18.75;62.37;100856.79;103484;1284;108540;-72
2022/06/12 03:47:07;;;;;;;0.40;0.20;;;;;;;18.85;61.22;100855.85;103596;1284;99758;-71
2022/06/12 03:49:52;;;;;;;0.40;0.20;;;;;;;18.95;61.49;100857.16;103631;1284;109064;-71
2022/06/12 03:52:26;;;;;;;0.40;0.10;;;;;;;19.02;61.62;100860.71;103649;1284;94360;-72
2022/06/12 03:55:00;;;;;;;0.40;0.10;;;;;;;19.10;61.39;100861.97;103590;1283;139094;-70
2022/06/12 03:57:52;;;;;;;0.40;0.10;;;;;;;19.26;61.10;100863.25;103683;1284;108380;-72
2022/06/12 04:00:18;;;;;;;0.40;0.10;;;;;;;19.43;60.69;100871.64;103498;1284;138580;-71
2022/06/12 04:02:50;;;;;;;0.40;0.10;;;;;;;19.44;60.42;100867.48;103664;1284;94400;-70
2022/06/12 04:05:25;;;;;;;0.40;0.10;;;;;;;19.42;61.16;100865.42;103485;1284;138298;-71
2022/06/12 04:07:54;;;;;;;0.40;0.10;;;;;;;19.52;60.34;100862.17;103464;1284;94612;-71
2022/06/12 04:10:24;;;;;;;0.40;0.10;;;;;;;19.63;59.68;100863.52;103700;1284;109087;-72
2022/06/12 04:12:51;;;;;;;0.40;0.10;;;;;;;19.66;59.61;100864.40;103371;1284;138316;-71
2022/06/12 04:15:27;;;;;;;0.40;0.10;;;;;;;19.63;59.57;100863.85;103538;1284;94406;-70
2022/06/12 04:17:56;;;;;;;0.40;0.10;;;;;;;19.66;59.76;100861.18;103388;1284;137637;-71
2022/06/12 04:20:32;;;;;;;0.40;0.10;;;;;;;19.85;59.35;100870.02;103589;1284;94871;-71
2022/06/12 04:23:07;;;;;;;0.40;0.10;;;;;;;19.97;58.65;100868.45;103618;1284;108105;-71
2022/06/12 04:25:50;;;;;;;0.40;0.10;;;;;;;19.94;58.75;100863.92;103575;1284;99613;-71
2022/06/12 04:28:25;;;;;;;0.40;0.10;;;;;;;19.90;58.68;100870.46;103480;1284;108177;-70
2022/06/12 04:30:53;;;;;;;0.40;0.10;;;;;;;19.93;58.60;100872.83;103438;1284;138985;-71
2022/06/12 04:33:28;;;;;;;0.40;0.10;;;;;;;20.06;58.47;100875.52;103650;1284;94353;-72
2022/06/12 04:35:59;;;;;;;0.40;0.10;;;;;;;20.11;58.53;100873.42;103552;1284;138283;-72
2022/06/12 04:38:29;;;;;;;0.40;0.10;;;;;;;20.20;58.05;100873.97;103802;1284;99486;-72
2022/06/12 04:40:56;;;;;;;0.40;0.10;;;;;;;20.24;57.76;100877.89;103845;1284;108329;-71
2022/06/12 04:43:23;;;;;;;0.40;0.10;;;;;;;20.23;57.68;100877.78;103422;1284;137615;-70
2022/06/12 04:45:51;;;;;;;0.40;0.10;;;;;;;20.25;57.86;100881.11;103536;1283;94708;-72
2022/06/12 04:48:27;;;;;;;0.40;0.10;;;;;;;20.27;57.37;100878.95;103590;1284;138536;-70
2022/06/12 04:50:54;;;;;;;0.40;0.10;;;;;;;20.37;56.82;100878.70;103638;1284;99309;-72
2022/06/12 04:53:21;;;;;;;0.40;0.10;;;;;;;20.45;56.55;100873.95;103301;1284;137844;-71
2022/06/12 04:55:48;;;;;;;0.40;0.10;;;;;;;20.51;56.53;100875.01;103482;1284;94776;-72
2022/06/12 04:58:15;;;;;;;0.40;0.10;;;;;;;20.61;56.79;100878.17;103512;1284;94697;-72
2022/06/12 05:00:41;;;;;;;0.40;0.10;;;;;;;20.68;56.71;100875.27;103527;1284;138725;-71
2022/06/12 05:03:08;;;;;;;0.40;0.10;;;;;;;20.77;56.07;100877.98;103650;1284;94883;-71
2022/06/12 05:05:35;;;;;;;0.40;0.20;;;;;;;20.82;56.21;100881.14;103305;1284;138816;-72
2022/06/12 05:08:02;;;;;;;0.40;0.10;;;;;;;20.90;55.56;100879.92;103537;1284;94450;-72
2022/06/12 05:10:28;;;;;;;0.40;0.10;;;;;;;20.97;54.99;100876.39;103522;1284;94831;-69
2022/06/12 05:12:55;;;;;;;0.40;0.10;;;;;;;21.01;54.80;100876.36;103496;1284;137998;-71
2022/06/12 05:15:22;;;;;;;0.40;0.10;;;;;;;21.04;54.55;100874.48;103639;1284;94422;-73
2022/06/12 05:17:49;;;;;;;0.40;0.10;;;;;;;21.14;54.80;100874.98;103374;1284;137968;-71
2022/06/12 05:20:21;;;;;;;0.40;0.10;;;;;;;21.29;54.92;100869.88;103597;1284;108667;-71
2022/06/12 05:22:48;;;;;;;0.40;0.10;;;;;;;21.36;54.48;100869.43;103604;1284;99539;-71
2022/06/12 05:25:17;;;;;;;0.40;0.10;;;;;;;21.37;53.48;100869.88;103441;1284;137760;-71
2022/06/12 05:27:46;;;;;;;0.40;0.10;;;;;;;21.46;53.14;100872.42;103625;1284;94369;-72
2022/06/12 05:30:16;;;;;;;0.40;0.10;;;;;;;21.54;53.44;100870.83;103574;1284;141475;-71
2022/06/12 05:32:44;;;;;;;0.40;0.10;;;;;;;21.64;52.57;100868.01;103565;1284;107419;-71
2022/06/12 05:35:12;;;;;;;0.40;0.10;;;;;;;21.71;52.54;100870.98;103483;1284;138934;-71
2022/06/12 05:37:38;;;;;;;0.40;0.10;;;;;;;21.82;53.00;100872.63;103494;1284;108914;-73
2022/06/12 05:40:12;;;;;;;0.40;0.10;;;;;;;21.92;52.44;100874.86;103462;1284;96125;-71
2022/06/12 05:42:40;;;;;;;0.40;0.10;;;;;;;22.05;51.93;100877.42;103498;1284;137784;-72
2022/06/12 05:45:12;;;;;;;0.40;0.10;;;;;;;22.10;52.03;100870.77;103458;1284;284662;-72
2022/06/12 05:47:58;;;;;;;0.40;0.10;;;;;;;22.24;51.65;100873.09;103500;1284;139375;-72
2022/06/12 05:50:29;;;;;;;0.40;0.10;;;;;;;22.39;52.07;100868.85;103493;1284;108586;-72
2022/06/12 05:52:56;;;;;;;0.40;0.10;;;;;;;22.45;52.17;100870.98;103609;1284;94512;-71
2022/06/12 05:55:23;;;;;;;0.40;0.10;;;;;;;22.48;51.16;100870.06;103468;1284;137688;-71
2022/06/12 05:57:50;;;;;;;0.40;0.10;;;;;;;22.58;51.34;100865.58;103516;1284;94426;-72
2022/06/12 06:00:21;;;;;;;0.40;0.10;;;;;;;22.64;50.42;100868.78;103393;1284;137795;-70
2022/06/12 06:02:48;;;;;;;0.40;0.10;;;;;;;22.67;50.39;100869.83;103517;1284;109647;-71
2022/06/12 06:05:16;;;;;;;0.40;0.10;;;;;;;22.76;50.39;100867.59;103479;1284;138024;-71
2022/06/12 06:07:43;;;;;;;0.40;0.10;;;;;;;22.84;49.21;100867.93;103583;1284;94489;-72
2022/06/12 06:10:15;;;;;;;0.40;0.10;;;;;;;22.88;49.18;100869.95;103567;1284;94785;-71
2022/06/12 06:12:42;;;;;;;0.40;0.10;;;;;;;22.90;48.54;100871.66;103521;1284;138521;-72
2022/06/12 06:15:10;;;;;;;0.40;0.10;;;;;;;22.92;48.63;100875.12;103557;1284;94932;-71
2022/06/12 06:17:37;;;;;;;0.40;0.10;;;;;;;22.97;48.80;100874.58;103547;1284;138022;-73
2022/06/12 06:20:06;;;;;;;0.40;0.10;;;;;;;23.08;48.54;100876.92;103521;1284;94793;-71
2022/06/12 06:22:32;;;;;;;0.40;0.10;;;;;;;23.18;48.04;100873.34;103717;1284;108292;-71
2022/06/12 06:24:59;;;;;;;0.40;0.10;;;;;;;23.28;48.44;100867.39;103378;1284;138559;-72
2022/06/12 06:27:26;;;;;;;0.40;0.10;;;;;;;23.41;46.98;100860.09;103522;1285;94781;-71
2022/06/12 06:29:52;;;;;;;0.40;0.10;;;;;;;23.48;46.91;100859.19;103536;1284;137895;-71
2022/06/12 06:32:19;;;;;;;0.40;0.10;;;;;;;23.60;46.56;100859.63;103682;1285;95340;-71
2022/06/12 06:34:45;;;;;;;0.40;0.10;;;;;;;23.72;46.29;100859.63;103512;1284;99441;-71
2022/06/12 06:37:13;;;;;;;0.40;0.10;;;;;;;23.79;45.89;100858.91;103414;1284;138067;-71
2022/06/12 06:39:41;;;;;;;0.40;0.10;;;;;;;23.85;45.41;100861.19;103630;1284;94354;-71
2022/06/12 06:42:10;;;;;;;0.40;0.10;;;;;;;23.91;44.96;100860.96;103565;1284;138658;-71
2022/06/12 06:47:23;;;;;;;0.40;0.10;;;;;;;24.12;45.75;100861.38;103498;1284;138215;-71
2022/06/12 06:49:50;;;;;;;0.40;0.10;;;;;;;24.24;44.66;100861.41;103565;1284;94653;-71
2022/06/12 06:52:17;;;;;;;0.40;0.10;;;;;;;24.24;44.43;100863.34;103514;1284;94342;-70
2022/06/12 06:54:43;;;;;;;0.40;0.10;;;;;;;24.29;44.50;100861.89;103451;1284;137894;-70
2022/06/12 06:57:11;;;;;;;0.40;0.10;;;;;;;24.38;44.29;100861.20;103532;1284;94362;-72
2022/06/12 06:59:38;;;;;;;0.40;0.10;;;;;;;24.49;43.99;100855.23;103422;1284;138471;-71
2022/06/12 07:02:05;;;;;;;0.40;0.00;;;;;;;24.67;43.63;100848.98;103559;1284;94378;-72
2022/06/12 07:04:32;;;;;;;0.40;0.00;;;;;;;24.76;43.39;100845.80;103612;1284;94832;-71
2022/06/12 07:06:58;;;;;;;0.40;0.10;;;;;;;24.84;43.50;100843.81;103517;1284;138356;-71
2022/06/12 07:09:25;;;;;;;0.40;0.10;;;;;;;24.93;43.38;100841.70;103608;1284;95839;-71
2022/06/12 07:11:52;;;;;;;0.40;0.10;;;;;;;24.94;43.20;100843.23;103609;1284;137880;-71
2022/06/12 07:14:18;;;;;;;0.40;0.10;;;;;;;24.99;43.08;100846.11;103617;1284;94550;-72
2022/06/12 07:16:45;;;;;;;0.40;0.10;;;;;;;25.12;43.56;100842.70;103622;1284;94729;-71
2022/06/12 07:19:12;;;;;;;0.40;0.00;;;;;;;25.13;43.51;100841.55;103517;1284;138032;-72
2022/06/12 07:21:39;;;;;;;0.40;0.10;;;;;;;25.13;43.23;100842.08;103564;1284;94312;-69
2022/06/12 07:24:06;;;;;;;0.40;0.00;;;;;;;25.06;43.50;100842.48;103583;1284;138301;-72
2022/06/12 07:26:38;;;;;;;0.40;0.00;;;;;;;24.96;43.30;100837.29;102893;1284;108572;-71
2022/06/12 07:29:06;;;;;;;0.40;0.10;;;;;;;24.88;43.67;100836.79;103578;1284;138326;-70
2022/06/12 07:31:33;;;;;;;0.40;0.10;;;;;;;24.82;43.57;100834.70;103533;1284;95068;-70
2022/06/12 07:33:59;;;;;;;0.40;0.10;;;;;;;24.80;44.14;100834.20;103563;1284;94381;-69
2022/06/12 07:36:32;;;;;;;0.40;0.10;;;;;;;24.79;43.90;100826.85;102741;1285;137950;-68
2022/06/12 07:38:59;;;;;;;0.40;0.10;;;;;;;24.81;44.27;100829.16;102854;1284;94453;-68
2022/06/12 07:41:45;;;;;;;0.40;0.10;;;;;;;24.85;44.64;100829.23;102685;1284;137975;-70
2022/06/12 07:44:12;;;;;;;0.40;0.10;;;;;;;24.86;44.66;100829.02;103000;1284;107814;-70
2022/06/12 07:46:39;;;;;;;0.40;0.10;;;;;;;24.91;44.74;100827.55;102850;1285;94821;-70
2022/06/12 07:49:06;;;;;;;0.40;0.10;;;;;;;24.92;45.16;100827.65;103288;1284;137887;-70
2022/06/12 07:51:33;;;;;;;0.40;0.10;;;;;;;24.97;44.88;100829.04;102992;1284;94415;-69
2022/06/12 07:54:00;;;;;;;0.40;0.10;;;;;;;25.06;44.29;100828.11;102908;1284;138279;-69
2022/06/12 07:56:27;;;;;;;0.40;0.00;;;;;;;25.17;43.60;100829.42;102993;1284;94849;-70
2022/06/12 07:58:54;;;;;;;0.40;0.00;;;;;;;25.21;43.00;100826.54;103153;1284;94362;-69
2022/06/12 08:01:24;;;;;;;0.40;0.10;;;;;;;25.23;43.02;100826.56;102912;1284;138501;-70
2022/06/12 08:03:51;;;;;;;0.40;0.10;;;;;;;25.20;43.34;100824.45;103211;1284;99419;-70
2022/06/12 08:06:19;;;;;;;0.40;0.00;;;;;;;25.28;42.71;100824.69;102832;1284;137982;-69
2022/06/12 08:08:46;;;;;;;0.40;0.10;;;;;;;25.35;42.88;100823.48;103111;1284;95492;-70
2022/06/12 08:11:13;;;;;;;0.40;0.10;;;;;;;25.33;42.80;100822.12;102946;1284;138512;-71
2022/06/12 08:13:40;;;;;;;0.40;0.00;;;;;;;25.38;42.39;100823.97;103551;1282;94374;-70
2022/06/12 08:16:07;;;;;;;0.40;0.00;;;;;;;25.41;42.40;100821.54;103512;1284;94744;-69
2022/06/12 08:18:34;;;;;;;0.40;0.10;;;;;;;25.42;42.49;100821.20;103436;1284;138870;-69
2022/06/12 08:21:06;;;;;;;0.40;0.10;;;;;;;25.52;42.81;100821.31;102953;1284;94346;-69
2022/06/12 08:23:38;;;;;;;0.40;0.10;;;;;;;25.59;42.31;100816.75;102897;1284;138931;-70
2022/06/12 08:26:22;;;;;;;0.40;0.10;;;;;;;25.74;42.18;100818.55;103104;1284;108584;-70
2022/06/12 08:28:55;;;;;;;0.40;0.10;;;;;;;26.05;41.95;100817.65;102988;1284;99311;-69
2022/06/12 08:31:32;;;;;;;0.40;0.10;;;;;;;26.43;40.80;100812.02;102921;1284;138550;-71
2022/06/12 08:34:10;;;;;;;0.40;0.10;;;;;;;26.68;40.11;100811.71;103693;1284;94738;-69
2022/06/12 08:36:37;;;;;;;0.40;0.10;;;;;;;26.72;39.31;100814.50;103519;1284;138257;-71
2022/06/12 08:39:05;;;;;;;0.40;0.10;;;;;;;26.67;39.13;100812.48;103524;1284;109894;-71
2022/06/12 08:41:44;;;;;;;0.40;0.00;;;;;;;26.66;38.84;100812.73;103364;1284;138784;-71
2022/06/12 08:44:19;;;;;;;0.40;0.00;;;;;;;26.57;38.42;100808.80;103466;1285;107986;-71
2022/06/12 08:46:56;;;;;;;0.40;0.00;;;;;;;26.51;38.88;100805.32;103505;1284;94775;-71
2022/06/12 08:49:53;;;;;;;0.40;0.10;;;;;;;26.57;39.62;100808.14;103467;1284;138169;-71
2022/06/12 08:52:42;;;;;;;0.40;0.00;;;;;;;26.62;38.83;100806.77;103427;1285;108901;-71
2022/06/12 08:55:18;;;;;;;0.40;0.10;;;;;;;26.77;39.46;100802.35;103479;1285;138958;-70
2022/06/12 08:57:55;;;;;;;0.40;0.00;;;;;;;26.89;37.97;100800.04;103595;1284;108648;-70
2022/06/12 09:00:30;;;;;;;0.40;0.10;;;;;;;27.16;37.53;100797.08;103417;1284;138494;-71
2022/06/12 09:02:57;;;;;;;0.40;0.00;;;;;;;27.49;37.37;100793.79;103431;1285;94468;-70
2022/06/12 09:05:35;;;;;;;0.40;0.00;;;;;;;27.80;36.71;100790.77;103666;1284;138472;-71
2022/06/12 09:08:24;;;;;;;0.40;0.00;;;;;;;27.97;36.68;100793.04;103638;1284;97699;-71
2022/06/12 09:11:15;;;;;;;0.40;0.00;;;;;;;28.08;36.51;100794.05;103490;1284;108905;-71
2022/06/12 09:14:04;;;;;;;0.40;0.00;;;;;;;28.20;36.26;100791.05;103465;1284;94348;-70
2022/06/12 09:16:42;;;;;;;0.40;0.00;;;;;;;28.13;36.80;100792.66;103458;1285;94420;-70
2022/06/12 09:19:49;;;;;;;0.40;0.00;;;;;;;28.20;37.12;100786.27;103424;1284;138518;-72
2022/06/12 09:22:34;;;;;;;0.40;0.00;;;;;;;28.22;36.91;100783.77;103373;1287;98413;-71
2022/06/12 09:25:15;;;;;;;0.40;0.00;;;;;;;28.19;36.72;100781.64;102943;1285;138120;-70
2022/06/12 09:27:44;;;;;;;0.40;0.00;;;;;;;28.17;37.12;100780.39;103061;1285;94485;-71
2022/06/12 09:30:17;;;;;;;0.40;0.00;;;;;;;28.04;36.68;100780.10;103414;1284;138036;-71
2022/06/12 09:33:05;;;;;;;0.40;0.00;;;;;;;27.94;36.83;100781.29;103521;1284;108495;-72
2022/06/12 09:35:43;;;;;;;0.40;0.00;;;;;;;28.15;37.39;100778.02;103322;1285;138803;-72
2022/06/12 09:38:44;;;;;;;0.40;0.00;;;;;;;28.10;37.82;100775.03;103405;1284;107935;-70
2022/06/12 09:41:19;;;;;;;0.40;0.00;;;;;;;27.97;38.76;100780.29;103349;1284;138790;-70
2022/06/12 09:43:53;;;;;;;0.40;0.00;;;;;;;27.82;39.59;100777.26;103531;1284;94429;-70
2022/06/12 09:46:44;;;;;;;0.40;0.00;;;;;;;27.88;41.46;100777.80;103395;1285;108380;-70
2022/06/12 09:49:31;;;;;;;0.40;0.10;;;;;;;28.57;40.27;100772.06;103431;1284;138584;-71
2022/06/12 09:52:20;;;;;;;0.40;0.00;;;;;;;29.49;38.85;100769.64;103488;1284;108517;-71
2022/06/12 09:55:14;;;;;;;0.40;0.00;;;;;;;30.39;36.91;100773.43;103861;1284;138524;-71
2022/06/12 09:57:56;;;;;;;0.40;0.00;;;;;;;30.90;35.17;100774.39;103600;1284;94352;-71
2022/06/12 10:00:55;;;;;;;0.40;0.00;;;;;;;31.47;33.78;100764.98;103291;1287;137931;-71
2022/06/12 10:03:35;;;;;;;0.40;0.00;;;;;;;31.56;33.62;100762.13;103489;1284;99629;-71
2022/06/12 10:06:08;;;;;;;0.40;0.00;;;;;;;31.57;33.04;100762.02;103400;1284;138831;-71
2022/06/12 10:08:53;;;;;;;0.40;0.00;;;;;;;31.29;33.78;100763.20;103810;1284;94633;-72
2022/06/12 10:11:33;;;;;;;0.40;0.00;;;;;;;31.01;34.39;100766.25;103355;1284;138617;-72
2022/06/12 10:14:16;;;;;;;0.40;0.00;;;;;;;30.65;34.78;100771.17;103428;1285;107461;-72
2022/06/12 10:16:52;;;;;;;0.40;0.00;;;;;;;30.37;35.33;100770.61;103471;1284;98688;-72
2022/06/12 10:19:40;;;;;;;0.40;0.00;;;;;;;30.16;36.13;100769.75;103555;1284;109448;-72
2022/06/12 10:22:15;;;;;;;0.40;0.00;;;;;;;30.16;35.49;100763.89;103915;1285;94867;-72
2022/06/12 10:24:42;;;;;;;0.40;0.00;;;;;;;29.99;34.83;100759.65;103398;1284;138556;-72
2022/06/12 10:27:13;;;;;;;0.40;0.00;;;;;;;29.86;35.45;100763.91;103492;1284;96580;-71
2022/06/12 10:29:47;;;;;;;0.40;0.00;;;;;;;29.86;35.68;100761.48;103502;1284;138545;-72
2022/06/12 10:32:17;;;;;;;0.40;0.00;;;;;;;29.73;36.13;100756.26;103422;1285;109027;-72
2022/06/12 10:34:44;;;;;;;0.40;0.00;;;;;;;29.60;36.71;100756.82;103576;1284;96724;-72
2022/06/12 10:37:18;;;;;;;0.40;0.00;;;;;;;29.51;37.49;100753.11;103438;1284;138606;-72
2022/06/12 10:39:45;;;;;;;0.40;0.00;;;;;;;29.42;37.26;100753.73;103589;1284;108681;-72
2022/06/12 10:42:37;;;;;;;0.40;0.00;;;;;;;29.22;37.00;100751.57;103503;1284;138542;-72
2022/06/12 10:45:04;;;;;;;0.40;0.00;;;;;;;28.93;36.92;100744.96;103492;1284;107984;-72
2022/06/12 10:47:44;;;;;;;0.40;0.00;;;;;;;28.63;37.34;100748.28;103441;1284;138858;-71
2022/06/12 10:50:25;;;;;;;0.40;0.00;;;;;;;28.42;37.60;100746.80;103632;1284;94342;-71
2022/06/12 10:53:13;;;;;;;0.40;0.00;;;;;;;28.27;37.54;100745.48;103464;1285;108654;-72
2022/06/12 10:56:00;;;;;;;0.40;0.00;;;;;;;28.11;37.75;100743.00;103473;1284;99450;-72
2022/06/12 10:58:48;;;;;;;0.40;0.00;;;;;;;28.02;38.01;100742.75;103551;1284;107940;-70
2022/06/12 11:01:20;;;;;;;0.40;0.00;;;;;;;27.91;38.53;100744.30;103369;1284;138618;-71
2022/06/12 11:04:16;;;;;;;0.40;0.00;;;;;;;27.90;39.32;100743.48;103502;1285;94388;-70
2022/06/12 11:07:11;;;;;;;0.40;0.00;;;;;;;28.01;39.53;100739.30;103005;1287;138166;-72
2022/06/12 11:09:53;;;;;;;0.40;0.00;;;;;;;28.10;39.24;100731.57;103591;1284;99689;-72
2022/06/12 11:12:32;;;;;;;0.40;0.00;;;;;;;28.23;40.08;100727.21;103451;1284;137838;-72
2022/06/12 11:15:17;;;;;;;0.40;0.00;;;;;;;28.38;39.71;100724.54;103531;1285;94835;-72
2022/06/12 11:18:14;;;;;;;0.40;0.00;;;;;;;28.46;38.02;100721.61;103387;1284;137986;-72
2022/06/12 11:20:56;;;;;;;0.40;0.00;;;;;;;28.65;37.24;100715.52;103471;1284;108333;-71
2022/06/12 11:23:44;;;;;;;0.40;0.00;;;;;;;28.76;37.43;100714.52;103422;1284;138281;-71
2022/06/12 11:26:43;;;;;;;0.40;0.00;;;;;;;28.92;37.34;100713.65;103415;1284;108014;-71
2022/06/12 11:29:51;;;;;;;0.40;0.00;;;;;;;28.89;35.83;100714.11;103348;1284;137547;-71
2022/06/12 11:32:30;;;;;;;0.40;0.00;;;;;;;28.77;34.97;100712.05;103169;1287;94512;-73
2022/06/12 11:35:36;;;;;;;0.40;0.00;;;;;;;28.77;35.31;100710.15;103574;1284;108476;-72
2022/06/12 11:38:40;;;;;;;0.40;0.00;;;;;;;28.69;35.34;100707.09;103427;1286;99628;-71
2022/06/12 11:41:37;;;;;;;0.40;0.00;;;;;;;28.63;35.66;100702.19;103272;1285;138589;-72
2022/06/12 11:44:34;;;;;;;0.40;0.00;;;;;;;28.58;36.19;100697.98;103598;1284;94278;-71
2022/06/12 11:47:25;;;;;;;0.40;0.00;;;;;;;28.63;35.89;100693.56;103504;1284;95638;-71
2022/06/12 11:49:58;;;;;;;0.40;0.00;;;;;;;28.58;35.57;100694.66;103534;1284;108999;-71
2022/06/12 11:52:40;;;;;;;0.40;0.00;;;;;;;28.49;35.67;100688.89;103472;1284;98383;-71
2022/06/12 11:55:18;;;;;;;0.40;0.00;;;;;;;28.46;35.84;100688.30;103440;1284;138760;-71
2022/06/12 11:58:12;;;;;;;0.40;0.00;;;;;;;28.52;36.61;100686.29;103556;1284;94825;-72